sensor_id;sensor_type;location;lat;lon;timestamp;pressure;altitude;pressure_sealevel;temperature;humidity
49843;BME280;55559;48.898;9.184;2023-02-01T00:00:04;99096.38;;;4.04;100.00
49843;BME280;55559;48.898;9.184;2023-02-01T00:02:33;99102.41;;;4.06;100.00
49843;BME280;55559;48.898;9.184;2023-02-01T00:05:01;99102.03;;;3.96;100.00
49843;BME280;55559;48.898;9.184;2023-02-01T00:07:29;99096.16;;;3.91;100.00
49843;BME280;55559;48.898;9.184;2023-02-01T00:09:56;99090.50;;;3.99;100.00
49843;BME280;55559;48.898;9.184;2023-02-01T00:12:24;99086.09;;;3.99;100.00
49843;BME280;55559;48.898;9.184;2023-02-01T00:14:51;99081.94;;;3.95;100.00
49843;BME280;55559;48.898;9.184;2023-02-01T00:17:20;99082.41;;;3.86;100.00
49843;BME280;55559;48.898;9.184;2023-02-01T00:19:48;99065.00;;;3.83;100.00
49843;BME280;55559;48.898;9.184;2023-02-01T00:22:15;99072.28;;;3.78;100.00
49843;BME280;55559;48.898;9.184;2023-02-01T00:24:42;99060.19;;;3.74;100.00
49843;BME280;55559;48.898;9.184;2023-02-01T00:27:10;99070.03;;;3.70;100.00
49843;BME280;55559;48.898;9.184;2023-02-01T00:29:43;99078.63;;;3.74;100.00
49843;BME280;55559;48.898;9.184;2023-02-01T00:32:11;99078.63;;;3.74;100.00
49843;BME280;55559;48.898;9.184;2023-02-01T00:34:40;99072.66;;;3.70;100.00
49843;BME280;55559;48.898;9.184;2023-02-01T00:37:08;99072.66;;;3.70;100.00
49843;BME280;55559;48.898;9.184;2023-02-01T00:39:35;99072.44;;;3.75;100.00
49843;BME280;55559;48.898;9.184;2023-02-01T00:42:03;99072.50;;;3.73;100.00
49843;BME280;55559;48.898;9.184;2023-02-01T00:44:30;99074.53;;;3.68;100.00
49843;BME280;55559;48.898;9.184;2023-02-01T00:47:00;99069.72;;;3.77;100.00
49843;BME280;55559;48.898;9.184;2023-02-01T00:49:28;99060.34;;;3.71;100.00
49843;BME280;55559;48.898;9.184;2023-02-01T00:51:57;99036.94;;;3.66;100.00
49843;BME280;55559;48.898;9.184;2023-02-01T00:54:25;99013.50;;;3.62;100.00
49843;BME280;55559;48.898;9.184;2023-02-01T00:56:52;99006.59;;;3.59;100.00
49843;BME280;55559;48.898;9.184;2023-02-01T00:59:20;99008.53;;;3.56;100.00
49843;BME280;55559;48.898;9.184;2023-02-01T01:01:47;99010.50;;;3.52;100.00
49843;BME280;55559;48.898;9.184;2023-02-01T01:04:15;99011.44;;;3.51;100.00
49843;BME280;55559;48.898;9.184;2023-02-01T01:06:42;98999.44;;;3.45;100.00
49843;BME280;55559;48.898;9.184;2023-02-01T01:09:11;99008.41;;;3.41;100.00
49843;BME280;55559;48.898;9.184;2023-02-01T01:11:39;99014.28;;;3.46;100.00
49843;BME280;55559;48.898;9.184;2023-02-01T01:14:07;99008.88;;;3.49;100.00
49843;BME280;55559;48.898;9.184;2023-02-01T01:16:35;99022.78;;;3.51;100.00
49843;BME280;55559;48.898;9.184;2023-02-01T01:19:03;99026.94;;;3.56;100.00
49843;BME280;55559;48.898;9.184;2023-02-01T01:21:31;99028.44;;;3.61;100.00
49843;BME280;55559;48.898;9.184;2023-02-01T01:23:58;99031.84;;;3.63;100.00
49843;BME280;55559;48.898;9.184;2023-02-01T01:26:28;99028.09;;;3.67;100.00
49843;BME280;55559;48.898;9.184;2023-02-01T01:28:57;99032.59;;;3.65;100.00
49843;BME280;55559;48.898;9.184;2023-02-01T01:31:25;99037.94;;;3.64;100.00
49843;BME280;55559;48.898;9.184;2023-02-01T01:33:55;99038.81;;;3.64;100.00
49843;BME280;55559;48.898;9.184;2023-02-01T01:36:24;99035.16;;;3.67;100.00
49843;BME280;55559;48.898;9.184;2023-02-01T01:38:52;99044.84;;;3.66;100.00
49843;BME280;55559;48.898;9.184;2023-02-01T01:41:22;99034.91;;;3.71;100.00
49843;BME280;55559;48.898;9.184;2023-02-01T01:43:55;99044.56;;;3.71;100.00
49843;BME280;55559;48.898;9.184;2023-02-01T01:46:26;99039.31;;;3.71;100.00
49843;BME280;55559;48.898;9.184;2023-02-01T01:48:59;99029.13;;;3.65;100.00
49843;BME280;55559;48.898;9.184;2023-02-01T01:51:31;99036.78;;;3.69;100.00
49843;BME280;55559;48.898;9.184;2023-02-01T01:54:03;99023.53;;;3.71;100.00
49843;BME280;55559;48.898;9.184;2023-02-01T01:56:33;99033.97;;;3.72;100.00
49843;BME280;55559;48.898;9.184;2023-02-01T01:59:03;99032.38;;;3.70;100.00
49843;BME280;55559;48.898;9.184;2023-02-01T02:01:32;99042.66;;;3.75;100.00
49843;BME280;55559;48.898;9.184;2023-02-01T02:04:00;99036.97;;;3.82;100.00
49843;BME280;55559;48.898;9.184;2023-02-01T02:06:34;99035.38;;;3.80;100.00
49843;BME280;55559;48.898;9.184;2023-02-01T02:09:04;99033.34;;;3.85;100.00
49843;BME280;55559;48.898;9.184;2023-02-01T02:11:32;99030.81;;;3.83;100.00
49843;BME280;55559;48.898;9.184;2023-02-01T02:14:02;99023.97;;;3.79;100.00
49843;BME280;55559;48.898;9.184;2023-02-01T02:16:40;99022.22;;;3.80;100.00
49843;BME280;55559;48.898;9.184;2023-02-01T02:19:30;99017.81;;;3.80;100.00
49843;BME280;55559;48.898;9.184;2023-02-01T02:22:18;99022.38;;;3.77;100.00
49843;BME280;55559;48.898;9.184;2023-02-01T02:28:01;99021.19;;;3.82;100.00
49843;BME280;55559;48.898;9.184;2023-02-01T02:30:51;99024.84;;;3.80;100.00
49843;BME280;55559;48.898;9.184;2023-02-01T02:33:48;99016.16;;;3.78;100.00
49843;BME280;55559;48.898;9.184;2023-02-01T02:36:20;99019.31;;;3.84;100.00
49843;BME280;55559;48.898;9.184;2023-02-01T02:38:56;99011.63;;;3.81;100.00
49843;BME280;55559;48.898;9.184;2023-02-01T02:41:33;99011.69;;;3.80;100.00
49843;BME280;55559;48.898;9.184;2023-02-01T02:44:30;99006.38;;;3.81;100.00
49843;BME280;55559;48.898;9.184;2023-02-01T02:47:24;99002.84;;;3.81;100.00
49843;BME280;55559;48.898;9.184;2023-02-01T02:50:08;99014.06;;;3.84;100.00
49843;BME280;55559;48.898;9.184;2023-02-01T02:53:00;99008.66;;;3.87;100.00
49843;BME280;55559;48.898;9.184;2023-02-01T02:55:46;99002.78;;;3.82;100.00
49843;BME280;55559;48.898;9.184;2023-02-01T02:58:16;99002.72;;;3.84;100.00
49843;BME280;55559;48.898;9.184;2023-02-01T03:01:03;99010.75;;;3.81;100.00
49843;BME280;55559;48.898;9.184;2023-02-01T03:03:49;99004.34;;;3.86;100.00
49843;BME280;55559;48.898;9.184;2023-02-01T03:06:38;99002.56;;;3.87;100.00
49843;BME280;55559;48.898;9.184;2023-02-01T03:09:12;99001.88;;;3.83;100.00
49843;BME280;55559;48.898;9.184;2023-02-01T03:11:43;99001.09;;;3.81;100.00
49843;BME280;55559;48.898;9.184;2023-02-01T03:14:32;98969.78;;;3.77;100.00
49843;BME280;55559;48.898;9.184;2023-02-01T03:17:05;98968.06;;;3.76;100.00
49843;BME280;55559;48.898;9.184;2023-02-01T03:19:39;98972.25;;;3.80;100.00
49843;BME280;55559;48.898;9.184;2023-02-01T03:22:15;98956.63;;;3.77;100.00
49843;BME280;55559;48.898;9.184;2023-02-01T03:24:47;98947.19;;;3.72;100.00
49843;BME280;55559;48.898;9.184;2023-02-01T03:27:19;98942.94;;;3.70;100.00
49843;BME280;55559;48.898;9.184;2023-02-01T03:29:52;98946.41;;;3.70;100.00
49843;BME280;55559;48.898;9.184;2023-02-01T03:32:23;98946.34;;;3.72;100.00
49843;BME280;55559;48.898;9.184;2023-02-01T03:34:51;98933.94;;;3.74;100.00
49843;BME280;55559;48.898;9.184;2023-02-01T03:37:24;98945.94;;;3.80;100.00
49843;BME280;55559;48.898;9.184;2023-02-01T03:39:57;98943.22;;;3.81;100.00
49843;BME280;55559;48.898;9.184;2023-02-01T03:42:30;98946.69;;;3.82;100.00
49843;BME280;55559;48.898;9.184;2023-02-01T03:45:05;98932.78;;;3.80;100.00
49843;BME280;55559;48.898;9.184;2023-02-01T03:47:37;98945.66;;;3.84;100.00
49843;BME280;55559;48.898;9.184;2023-02-01T03:50:09;98942.03;;;3.87;100.00
49843;BME280;55559;48.898;9.184;2023-02-01T03:52:42;98943.75;;;3.88;100.00
49843;BME280;55559;48.898;9.184;2023-02-01T03:55:15;98942.03;;;3.87;100.00
49843;BME280;55559;48.898;9.184;2023-02-01T03:57:46;98949.09;;;3.86;100.00
49843;BME280;55559;48.898;9.184;2023-02-01T04:00:20;98953.47;;;3.86;100.00
49843;BME280;55559;48.898;9.184;2023-02-01T04:02:50;98944.59;;;3.88;100.00
49843;BME280;55559;48.898;9.184;2023-02-01T04:05:18;98943.75;;;3.88;100.00
49843;BME280;55559;48.898;9.184;2023-02-01T04:07:56;98941.19;;;3.86;100.00
49843;BME280;55559;48.898;9.184;2023-02-01T04:10:24;98931.59;;;3.85;100.00
49843;BME280;55559;48.898;9.184;2023-02-01T04:12:51;98924.91;;;3.80;100.00
49843;BME280;55559;48.898;9.184;2023-02-01T04:15:19;98919.78;;;3.77;100.00
49843;BME280;55559;48.898;9.184;2023-02-01T04:17:46;98920.63;;;3.77;100.00
49843;BME280;55559;48.898;9.184;2023-02-01T04:20:14;98915.28;;;3.79;100.00
49843;BME280;55559;48.898;9.184;2023-02-01T04:22:42;98927.19;;;3.86;100.00
49843;BME280;55559;48.898;9.184;2023-02-01T04:25:11;98928.56;;;3.93;100.00
49843;BME280;55559;48.898;9.184;2023-02-01T04:27:39;98935.34;;;3.97;100.00
49843;BME280;55559;48.898;9.184;2023-02-01T04:30:22;98930.50;;;4.05;100.00
49843;BME280;55559;48.898;9.184;2023-02-01T04:32:50;98943.00;;;4.02;100.00
49843;BME280;55559;48.898;9.184;2023-02-01T04:35:17;98948.09;;;4.05;100.00
49843;BME280;55559;48.898;9.184;2023-02-01T04:37:44;98942.41;;;4.13;100.00
49843;BME280;55559;48.898;9.184;2023-02-01T04:40:13;98948.19;;;4.19;100.00
49843;BME280;55559;48.898;9.184;2023-02-01T04:42:41;98946.38;;;4.20;100.00
49843;BME280;55559;48.898;9.184;2023-02-01T04:45:09;98954.28;;;4.20;100.00
49843;BME280;55559;48.898;9.184;2023-02-01T04:47:37;98941.03;;;4.21;100.00
49843;BME280;55559;48.898;9.184;2023-02-01T04:50:05;98939.69;;;4.14;100.00
49843;BME280;55559;48.898;9.184;2023-02-01T04:52:36;98929.41;;;4.09;100.00
49843;BME280;55559;48.898;9.184;2023-02-01T04:55:04;98903.16;;;4.08;100.00
49843;BME280;55559;48.898;9.184;2023-02-01T04:57:34;98908.09;;;4.14;100.00
49843;BME280;55559;48.898;9.184;2023-02-01T05:00:01;98907.41;;;4.10;100.00
49843;BME280;55559;48.898;9.184;2023-02-01T05:02:29;98916.06;;;4.13;100.00
49843;BME280;55559;48.898;9.184;2023-02-01T05:04:58;98926.59;;;4.13;100.00
49843;BME280;55559;48.898;9.184;2023-02-01T05:07:25;98927.56;;;4.12;100.00
49843;BME280;55559;48.898;9.184;2023-02-01T05:09:52;98918.94;;;4.08;100.00
49843;BME280;55559;48.898;9.184;2023-02-01T05:12:20;98915.47;;;4.07;100.00
49843;BME280;55559;48.898;9.184;2023-02-01T05:15:07;98930.94;;;4.14;100.00
49843;BME280;55559;48.898;9.184;2023-02-01T05:17:34;98923.66;;;4.19;100.00
49843;BME280;55559;48.898;9.184;2023-02-01T05:20:02;98935.84;;;4.20;100.00
49843;BME280;55559;48.898;9.184;2023-02-01T05:22:30;98938.31;;;4.23;100.00
49843;BME280;55559;48.898;9.184;2023-02-01T05:24:57;98935.69;;;4.23;100.00
49843;BME280;55559;48.898;9.184;2023-02-01T05:27:24;98944.00;;;4.31;100.00
49843;BME280;55559;48.898;9.184;2023-02-01T05:29:52;98940.09;;;4.38;100.00
49843;BME280;55559;48.898;9.184;2023-02-01T05:32:21;98931.16;;;4.57;100.00
49843;BME280;55559;48.898;9.184;2023-02-01T05:34:48;98922.41;;;4.56;100.00
49843;BME280;55559;48.898;9.184;2023-02-01T05:37:16;98913.69;;;4.56;100.00
49843;BME280;55559;48.898;9.184;2023-02-01T05:39:43;98923.84;;;4.62;100.00
49843;BME280;55559;48.898;9.184;2023-02-01T05:42:11;98919.94;;;4.69;100.00
49843;BME280;55559;48.898;9.184;2023-02-01T05:44:38;98914.66;;;4.69;100.00
49843;BME280;55559;48.898;9.184;2023-02-01T05:47:06;98909.41;;;4.69;100.00
49843;BME280;55559;48.898;9.184;2023-02-01T05:49:35;98915.44;;;4.71;100.00
49843;BME280;55559;48.898;9.184;2023-02-01T05:52:03;98924.84;;;4.75;100.00
49843;BME280;55559;48.898;9.184;2023-02-01T05:54:30;98929.00;;;4.79;100.00
49843;BME280;55559;48.898;9.184;2023-02-01T05:56:58;98930.69;;;4.80;100.00
49843;BME280;55559;48.898;9.184;2023-02-01T05:59:25;98937.41;;;4.86;100.00
49843;BME280;55559;48.898;9.184;2023-02-01T06:01:52;98940.63;;;4.91;100.00
49843;BME280;55559;48.898;9.184;2023-02-01T06:04:20;98949.19;;;4.95;100.00
49843;BME280;55559;48.898;9.184;2023-02-01T06:06:49;98943.94;;;4.95;100.00
49843;BME280;55559;48.898;9.184;2023-02-01T06:09:17;98951.56;;;4.99;100.00
49843;BME280;55559;48.898;9.184;2023-02-01T06:11:44;98962.28;;;4.96;100.00
49843;BME280;55559;48.898;9.184;2023-02-01T06:14:12;98963.13;;;4.97;100.00
49843;BME280;55559;48.898;9.184;2023-02-01T06:16:39;98963.28;;;4.94;100.00
49843;BME280;55559;48.898;9.184;2023-02-01T06:19:07;98950.13;;;4.94;100.00
49843;BME280;55559;48.898;9.184;2023-02-01T06:21:35;98966.03;;;4.92;100.00
49843;BME280;55559;48.898;9.184;2023-02-01T06:24:05;98963.13;;;4.97;100.00
49843;BME280;55559;48.898;9.184;2023-02-01T06:26:32;98951.91;;;4.93;100.00
49843;BME280;55559;48.898;9.184;2023-02-01T06:28:59;98970.38;;;4.93;100.00
49843;BME280;55559;48.898;9.184;2023-02-01T06:31:27;98962.53;;;4.92;100.00
49843;BME280;55559;48.898;9.184;2023-02-01T06:33:54;98961.44;;;4.96;100.00
49843;BME280;55559;48.898;9.184;2023-02-01T06:36:22;98952.41;;;5.00;100.00
49843;BME280;55559;48.898;9.184;2023-02-01T06:38:49;98948.44;;;4.93;100.00
49843;BME280;55559;48.898;9.184;2023-02-01T06:41:18;98940.53;;;4.93;100.00
49843;BME280;55559;48.898;9.184;2023-02-01T06:43:46;98945.63;;;4.96;100.00
49843;BME280;55559;48.898;9.184;2023-02-01T06:46:14;98957.00;;;4.96;100.00
49843;BME280;55559;48.898;9.184;2023-02-01T06:48:41;98960.91;;;5.05;100.00
49843;BME280;55559;48.898;9.184;2023-02-01T06:51:19;98960.16;;;5.03;100.00
49843;BME280;55559;48.898;9.184;2023-02-01T06:53:47;98962.78;;;5.03;100.00
49843;BME280;55559;48.898;9.184;2023-02-01T06:56:14;98965.25;;;5.06;100.00
49843;BME280;55559;48.898;9.184;2023-02-01T06:58:43;98979.25;;;5.07;100.00
49843;BME280;55559;48.898;9.184;2023-02-01T07:01:14;98985.53;;;5.04;100.00
49843;BME280;55559;48.898;9.184;2023-02-01T07:03:42;98977.38;;;5.09;100.00
49843;BME280;55559;48.898;9.184;2023-02-01T07:06:10;98982.56;;;5.10;100.00
49843;BME280;55559;48.898;9.184;2023-02-01T07:08:37;98980.97;;;5.08;100.00
49843;BME280;55559;48.898;9.184;2023-02-01T07:11:06;98999.31;;;5.09;100.00
49843;BME280;55559;48.898;9.184;2023-02-01T07:13:35;99010.72;;;5.10;100.00
49843;BME280;55559;48.898;9.184;2023-02-01T07:16:06;99003.66;;;5.10;100.00
49843;BME280;55559;48.898;9.184;2023-02-01T07:18:35;99004.50;;;5.11;100.00
49843;BME280;55559;48.898;9.184;2023-02-01T07:21:03;98997.16;;;5.16;100.00
49843;BME280;55559;48.898;9.184;2023-02-01T07:23:30;98995.31;;;5.18;100.00
49843;BME280;55559;48.898;9.184;2023-02-01T07:25:59;99004.16;;;5.17;100.00
49843;BME280;55559;48.898;9.184;2023-02-01T07:28:29;99002.44;;;5.16;100.00
49843;BME280;55559;48.898;9.184;2023-02-01T07:31:04;99013.69;;;5.19;100.00
49843;BME280;55559;48.898;9.184;2023-02-01T07:33:31;99013.69;;;5.19;100.00
49843;BME280;55559;48.898;9.184;2023-02-01T07:36:01;99013.06;;;5.14;100.00
49843;BME280;55559;48.898;9.184;2023-02-01T07:38:28;99007.78;;;5.14;100.00
49843;BME280;55559;48.898;9.184;2023-02-01T07:40:59;99007.03;;;5.12;100.00
49843;BME280;55559;48.898;9.184;2023-02-01T07:43:27;99005.84;;;5.18;100.00
49843;BME280;55559;48.898;9.184;2023-02-01T07:45:55;99019.63;;;5.23;100.00
49843;BME280;55559;48.898;9.184;2023-02-01T07:48:26;98998.63;;;5.21;100.00
49843;BME280;55559;48.898;9.184;2023-02-01T07:50:57;99003.00;;;5.21;100.00
49843;BME280;55559;48.898;9.184;2023-02-01T07:53:25;99003.81;;;5.23;100.00
49843;BME280;55559;48.898;9.184;2023-02-01T07:55:53;98996.66;;;5.25;100.00
49843;BME280;55559;48.898;9.184;2023-02-01T07:58:22;99002.75;;;5.26;100.00
49843;BME280;55559;48.898;9.184;2023-02-01T08:00:49;99011.72;;;5.23;100.00
49843;BME280;55559;48.898;9.184;2023-02-01T08:03:36;98997.47;;;5.26;100.00
49843;BME280;55559;48.898;9.184;2023-02-01T08:06:04;98989.31;;;5.30;100.00
49843;BME280;55559;48.898;9.184;2023-02-01T08:08:32;98989.88;;;5.35;100.00
49843;BME280;55559;48.898;9.184;2023-02-01T08:11:00;98989.78;;;5.37;100.00
49843;BME280;55559;48.898;9.184;2023-02-01T08:13:28;98993.28;;;5.37;100.00
49843;BME280;55559;48.898;9.184;2023-02-01T08:15:57;98994.81;;;5.42;100.00
49843;BME280;55559;48.898;9.184;2023-02-01T08:18:26;98996.47;;;5.43;100.00
49843;BME280;55559;48.898;9.184;2023-02-01T08:20:55;98985.75;;;5.46;100.00
49843;BME280;55559;48.898;9.184;2023-02-01T08:23:23;99008.41;;;5.50;100.00
49843;BME280;55559;48.898;9.184;2023-02-01T08:25:50;98998.78;;;5.63;100.00
49843;BME280;55559;48.898;9.184;2023-02-01T08:28:18;99010.78;;;5.69;100.00
49843;BME280;55559;48.898;9.184;2023-02-01T08:30:45;99004.56;;;5.84;100.00
49843;BME280;55559;48.898;9.184;2023-02-01T08:33:13;99014.91;;;5.73;100.00
49843;BME280;55559;48.898;9.184;2023-02-01T08:35:40;99015.09;;;5.70;100.00
49843;BME280;55559;48.898;9.184;2023-02-01T08:38:09;99010.50;;;5.73;100.00
49843;BME280;55559;48.898;9.184;2023-02-01T08:40:36;99025.47;;;5.73;100.00
49843;BME280;55559;48.898;9.184;2023-02-01T08:43:04;99029.41;;;5.66;100.00
49843;BME280;55559;48.898;9.184;2023-02-01T08:45:31;99034.13;;;5.61;100.00
49843;BME280;55559;48.898;9.184;2023-02-01T08:47:59;99039.97;;;5.66;100.00
49843;BME280;55559;48.898;9.184;2023-02-01T08:50:26;99037.34;;;5.66;100.00
49843;BME280;55559;48.898;9.184;2023-02-01T08:52:54;99037.34;;;5.66;100.00
49843;BME280;55559;48.898;9.184;2023-02-01T08:55:23;99041.38;;;5.57;100.00
49843;BME280;55559;48.898;9.184;2023-02-01T08:57:50;99052.69;;;5.59;100.00
49843;BME280;55559;48.898;9.184;2023-02-01T09:00:18;99047.22;;;5.62;100.00
49843;BME280;55559;48.898;9.184;2023-02-01T09:02:45;99051.47;;;5.65;100.00
49843;BME280;55559;48.898;9.184;2023-02-01T09:05:13;99062.22;;;5.62;100.00
49843;BME280;55559;48.898;9.184;2023-02-01T09:07:42;99050.53;;;5.66;100.00
49843;BME280;55559;48.898;9.184;2023-02-01T09:10:10;99057.78;;;5.62;100.00
49843;BME280;55559;48.898;9.184;2023-02-01T09:12:40;99053.91;;;5.68;100.00
49843;BME280;55559;48.898;9.184;2023-02-01T09:15:08;99061.91;;;5.66;100.00
49843;BME280;55559;48.898;9.184;2023-02-01T09:17:36;99074.94;;;5.69;100.00
49843;BME280;55559;48.898;9.184;2023-02-01T09:20:04;99068.91;;;5.67;100.00
49843;BME280;55559;48.898;9.184;2023-02-01T09:22:32;99073.63;;;5.76;100.00
49843;BME280;55559;48.898;9.184;2023-02-01T09:24:59;99067.91;;;5.84;100.00
49843;BME280;55559;48.898;9.184;2023-02-01T09:27:27;99055.63;;;5.83;100.00
49843;BME280;55559;48.898;9.184;2023-02-01T09:29:56;99059.81;;;5.87;100.00
49843;BME280;55559;48.898;9.184;2023-02-01T09:32:23;99058.66;;;5.91;100.00
49843;BME280;55559;48.898;9.184;2023-02-01T09:34:51;99051.75;;;5.74;100.00
49843;BME280;55559;48.898;9.184;2023-02-01T09:37:20;99049.47;;;5.68;100.00
49843;BME280;55559;48.898;9.184;2023-02-01T09:39:47;99053.53;;;5.59;100.00
49843;BME280;55559;48.898;9.184;2023-02-01T09:42:21;99058.66;;;5.77;100.00
49843;BME280;55559;48.898;9.184;2023-02-01T09:45:06;99057.00;;;5.90;100.00
49843;BME280;55559;48.898;9.184;2023-02-01T09:47:44;99080.25;;;5.84;100.00
49843;BME280;55559;48.898;9.184;2023-02-01T09:50:17;99063.72;;;5.96;100.00
49843;BME280;55559;48.898;9.184;2023-02-01T09:52:52;99074.09;;;6.13;100.00
49843;BME280;55559;48.898;9.184;2023-02-01T09:55:30;99057.31;;;6.14;100.00
49843;BME280;55559;48.898;9.184;2023-02-01T09:58:02;99059.47;;;6.22;100.00
49843;BME280;55559;48.898;9.184;2023-02-01T10:00:35;99073.50;;;6.08;100.00
49843;BME280;55559;48.898;9.184;2023-02-01T10:03:04;99055.69;;;6.12;100.00
49843;BME280;55559;48.898;9.184;2023-02-01T10:05:43;99067.50;;;6.21;100.00
49843;BME280;55559;48.898;9.184;2023-02-01T10:08:20;99063.81;;;6.23;100.00
49843;BME280;55559;48.898;9.184;2023-02-01T10:10:52;99063.53;;;6.28;100.00
49843;BME280;55559;48.898;9.184;2023-02-01T10:13:39;99074.38;;;6.23;100.00
49843;BME280;55559;48.898;9.184;2023-02-01T10:16:27;99076.47;;;6.32;100.00
49843;BME280;55559;48.898;9.184;2023-02-01T10:19:13;99077.38;;;6.60;100.00
49843;BME280;55559;48.898;9.184;2023-02-01T10:21:50;99089.75;;;6.45;100.00
49843;BME280;55559;48.898;9.184;2023-02-01T10:27:12;99096.75;;;6.46;100.00
49843;BME280;55559;48.898;9.184;2023-02-01T10:29:42;99090.81;;;6.43;100.00
49843;BME280;55559;48.898;9.184;2023-02-01T10:32:15;99104.66;;;6.61;100.00
49843;BME280;55559;48.898;9.184;2023-02-01T10:34:44;99091.06;;;6.38;100.00
49843;BME280;55559;48.898;9.184;2023-02-01T10:37:22;99095.31;;;6.41;100.00
49843;BME280;55559;48.898;9.184;2023-02-01T10:39:54;99101.34;;;6.28;100.00
49843;BME280;55559;48.898;9.184;2023-02-01T10:42:25;99097.88;;;6.28;100.00
49843;BME280;55559;48.898;9.184;2023-02-01T10:44:54;99092.69;;;6.26;100.00
49843;BME280;55559;48.898;9.184;2023-02-01T10:47:25;99093.44;;;6.28;100.00
49843;BME280;55559;48.898;9.184;2023-02-01T10:49:57;99106.81;;;6.25;100.00
49843;BME280;55559;48.898;9.184;2023-02-01T10:52:36;99100.03;;;6.36;100.00
49843;BME280;55559;48.898;9.184;2023-02-01T10:55:34;99097.97;;;6.26;100.00
49843;BME280;55559;48.898;9.184;2023-02-01T10:58:04;99095.88;;;6.17;100.00
49843;BME280;55559;48.898;9.184;2023-02-01T11:00:41;99089.94;;;6.28;100.00
49843;BME280;55559;48.898;9.184;2023-02-01T11:03:33;99082.69;;;6.31;100.00
49843;BME280;55559;48.898;9.184;2023-02-01T11:06:03;99081.72;;;6.47;100.00
49843;BME280;55559;48.898;9.184;2023-02-01T11:08:42;99075.88;;;6.42;100.00
49843;BME280;55559;48.898;9.184;2023-02-01T11:11:11;99076.53;;;6.45;100.00
49843;BME280;55559;48.898;9.184;2023-02-01T11:13:39;99079.28;;;6.29;100.00
49843;BME280;55559;48.898;9.184;2023-02-01T11:16:12;99077.69;;;6.27;100.00
49843;BME280;55559;48.898;9.184;2023-02-01T11:18:41;99077.50;;;6.44;100.00
49843;BME280;55559;48.898;9.184;2023-02-01T11:21:10;99068.31;;;6.64;100.00
49843;BME280;55559;48.898;9.184;2023-02-01T11:23:43;99064.06;;;6.47;100.00
49843;BME280;55559;48.898;9.184;2023-02-01T11:26:14;99060.41;;;6.36;100.00
49843;BME280;55559;48.898;9.184;2023-02-01T11:28:51;99065.34;;;6.27;100.00
49843;BME280;55559;48.898;9.184;2023-02-01T11:31:19;99047.88;;;6.39;100.00
49843;BME280;55559;48.898;9.184;2023-02-01T11:33:51;99029.47;;;6.38;100.00
49843;BME280;55559;48.898;9.184;2023-02-01T11:36:24;99037.13;;;6.28;100.00
49843;BME280;55559;48.898;9.184;2023-02-01T11:39:07;99027.41;;;6.28;100.00
49843;BME280;55559;48.898;9.184;2023-02-01T11:41:41;99021.28;;;6.28;100.00
49843;BME280;55559;48.898;9.184;2023-02-01T11:44:21;99028.44;;;6.40;100.00
49843;BME280;55559;48.898;9.184;2023-02-01T11:46:49;99022.47;;;6.51;100.00
49843;BME280;55559;48.898;9.184;2023-02-01T11:49:22;99014.34;;;6.54;100.00
49843;BME280;55559;48.898;9.184;2023-02-01T11:52:02;99019.25;;;6.60;100.00
49843;BME280;55559;48.898;9.184;2023-02-01T11:54:46;99008.59;;;6.62;100.00
49843;BME280;55559;48.898;9.184;2023-02-01T11:57:37;99011.84;;;6.80;100.00
49843;BME280;55559;48.898;9.184;2023-02-01T12:00:26;99004.59;;;6.69;100.00
49843;BME280;55559;48.898;9.184;2023-02-01T12:03:15;99010.47;;;6.60;100.00
49843;BME280;55559;48.898;9.184;2023-02-01T12:05:53;99008.50;;;6.49;100.00
49843;BME280;55559;48.898;9.184;2023-02-01T12:08:35;99009.28;;;6.51;100.00
49843;BME280;55559;48.898;9.184;2023-02-01T12:11:19;98992.56;;;6.50;100.00
49843;BME280;55559;48.898;9.184;2023-02-01T12:13:57;99007.19;;;6.42;100.00
49843;BME280;55559;48.898;9.184;2023-02-01T12:16:33;99008.72;;;6.31;100.00
49843;BME280;55559;48.898;9.184;2023-02-01T12:19:14;99006.00;;;6.33;100.00
49843;BME280;55559;48.898;9.184;2023-02-01T12:21:54;98999.09;;;6.30;100.00
49843;BME280;55559;48.898;9.184;2023-02-01T12:24:44;98995.69;;;6.43;100.00
49843;BME280;55559;48.898;9.184;2023-02-01T12:27:32;98997.13;;;6.20;100.00
49843;BME280;55559;48.898;9.184;2023-02-01T12:30:17;99004.97;;;6.21;100.00
49843;BME280;55559;48.898;9.184;2023-02-01T12:32:58;99002.38;;;6.34;100.00
49843;BME280;55559;48.898;9.184;2023-02-01T12:35:58;98996.53;;;6.43;100.00
49843;BME280;55559;48.898;9.184;2023-02-01T12:41:35;99004.09;;;6.49;100.00
49843;BME280;55559;48.898;9.184;2023-02-01T12:44:12;99016.53;;;6.47;100.00
49843;BME280;55559;48.898;9.184;2023-02-01T12:46:47;99012.66;;;6.39;100.00
49843;BME280;55559;48.898;9.184;2023-02-01T12:49:19;99034.50;;;6.28;100.00
49843;BME280;55559;48.898;9.184;2023-02-01T12:51:54;99038.16;;;6.25;100.00
49843;BME280;55559;48.898;9.184;2023-02-01T12:54:30;99005.16;;;6.18;100.00
49843;BME280;55559;48.898;9.184;2023-02-01T12:57:02;99001.22;;;6.11;100.00
49843;BME280;55559;48.898;9.184;2023-02-01T12:59:33;98994.31;;;6.08;100.00
49843;BME280;55559;48.898;9.184;2023-02-01T13:02:13;98991.06;;;6.32;100.00
49843;BME280;55559;48.898;9.184;2023-02-01T13:04:53;98994.13;;;6.26;100.00
49843;BME280;55559;48.898;9.184;2023-02-01T13:07:29;98996.47;;;6.16;100.00
49843;BME280;55559;48.898;9.184;2023-02-01T13:10:02;99013.75;;;6.07;100.00
49843;BME280;55559;48.898;9.184;2023-02-01T13:12:35;98995.19;;;6.09;100.00
49843;BME280;55559;48.898;9.184;2023-02-01T13:15:14;98992.41;;;6.10;100.00
49843;BME280;55559;48.898;9.184;2023-02-01T13:17:43;98993.56;;;6.06;100.00
49843;BME280;55559;48.898;9.184;2023-02-01T13:20:19;98980.47;;;6.19;100.00
49843;BME280;55559;48.898;9.184;2023-02-01T13:22:51;98987.31;;;5.93;100.00
49843;BME280;55559;48.898;9.184;2023-02-01T13:25:29;98981.50;;;6.02;100.00
49843;BME280;55559;48.898;9.184;2023-02-01T13:28:02;98984.72;;;6.07;100.00
49843;BME280;55559;48.898;9.184;2023-02-01T13:30:34;98972.16;;;6.11;100.00
49843;BME280;55559;48.898;9.184;2023-02-01T13:33:15;98973.50;;;6.04;100.00